Time;durP1;ratioP1;P1;durP2;ratioP2;P2;SDS_P1;SDS_P2;PMS_P1;PMS_P2;Temp;Humidity;BMP_temperature;BMP_pressure;BME280_temperature;BME280_humidity;BME280_pressure;Samples;Min_cycle;Max_cycle;Signal;HPM_P1;HPM_P2
2022/10/06 00:01:35;;;;;;;;;;;27.30;99.90;;;;;;4226806;28;19958;-68
2022/10/06 00:03:42;;;;;;;;;;;27.30;99.90;;;;;;4229510;28;20453;-68
2022/10/06 00:05:46;;;;;;;;;;;27.30;99.90;;;;;;4230092;28;19928;-67
2022/10/06 00:07:49;;;;;;;;;;;27.30;99.90;;;;;;4228488;27;20314;-67
2022/10/06 00:09:54;;;;;;;;;;;27.30;99.90;;;;;;4227613;28;19923;-67
2022/10/06 00:12:00;;;;;;;;;;;27.30;99.90;;;;;;4230342;28;19928;-67
2022/10/06 00:14:05;;;;;;;;;;;27.30;99.90;;;;;;4227568;28;20411;-67
2022/10/06 00:16:16;;;;;;;;;;;27.30;99.90;;;;;;4211849;28;20359;-67
2022/10/06 00:18:19;;;;;;;;;;;27.10;99.90;;;;;;4228467;27;20378;-67
2022/10/06 00:20:24;;;;;;;;;;;27.00;99.90;;;;;;4230681;28;19932;-67
2022/10/06 00:22:33;;;;;;;;;;;26.90;99.90;;;;;;4213935;28;19935;-67
2022/10/06 00:24:39;;;;;;;;;;;26.90;99.90;;;;;;4213895;28;19924;-67
2022/10/06 00:26:43;;;;;;;;;;;27.00;99.90;;;;;;4213810;28;20014;-67
2022/10/06 00:28:49;;;;;;;;;;;26.90;99.90;;;;;;4223031;27;19924;-67
2022/10/06 00:30:55;;;;;;;;;;;27.00;99.90;;;;;;4229458;27;19931;-68
2022/10/06 00:33:00;;;;;;;;;;;27.00;99.90;;;;;;4234102;27;19927;-69
2022/10/06 00:35:08;;;;;;;;;;;27.00;99.90;;;;;;4213130;28;19932;-67
2022/10/06 00:37:14;;;;;;;;;;;27.00;99.90;;;;;;4230610;28;19924;-68
2022/10/06 00:39:19;;;;;;;;;;;26.90;99.90;;;;;;4229820;27;19928;-68
2022/10/06 00:41:25;;;;;;;;;;;26.90;99.90;;;;;;4228985;28;20389;-68
2022/10/06 00:43:41;;;;;;;;;;;27.10;99.90;;;;;;4201669;28;19973;-68
2022/10/06 00:45:46;;;;;;;;;;;27.10;99.90;;;;;;4184610;28;19928;-68
2022/10/06 00:47:51;;;;;;;;;;;27.10;99.90;;;;;;4204085;28;19951;-67
2022/10/06 00:49:56;;;;;;;;;;;27.20;99.90;;;;;;4203203;28;19932;-67
2022/10/06 00:52:01;;;;;;;;;;;27.20;99.90;;;;;;4206039;28;19973;-68
2022/10/06 00:54:06;;;;;;;;;;;27.20;99.90;;;;;;4188571;28;20355;-68
2022/10/06 00:56:12;;;;;;;;;;;27.30;99.90;;;;;;4230112;27;19981;-68
2022/10/06 00:58:18;;;;;;;;;;;27.30;99.90;;;;;;4140614;28;20047;-68
2022/10/06 01:00:26;;;;;;;;;;;27.20;99.90;;;;;;4204675;28;19934;-67
2022/10/06 01:02:34;;;;;;;;;;;27.30;99.90;;;;;;4184340;28;20425;-67
2022/10/06 01:04:40;;;;;;;;;;;27.30;99.90;;;;;;4172081;28;19935;-67
2022/10/06 01:06:48;;;;;;;;;;;27.40;99.90;;;;;;4169028;28;19929;-67
2022/10/06 01:08:54;;;;;;;;;;;27.40;99.90;;;;;;4169064;28;19933;-67
2022/10/06 01:10:59;;;;;;;;;;;27.40;99.90;;;;;;4185464;28;19951;-67
2022/10/06 01:13:09;;;;;;;;;;;27.40;99.90;;;;;;4152795;28;19929;-67
2022/10/06 01:15:14;;;;;;;;;;;27.60;99.90;;;;;;4169551;28;20011;-67
2022/10/06 01:17:20;;;;;;;;;;;27.70;99.90;;;;;;4153893;28;20391;-67
2022/10/06 01:19:26;;;;;;;;;;;27.80;99.90;;;;;;4186947;28;19967;-67
2022/10/06 01:21:38;;;;;;;;;;;27.90;99.90;;;;;;4170721;28;19952;-67
2022/10/06 01:23:43;;;;;;;;;;;27.90;99.90;;;;;;4170811;28;19933;-68
2022/10/06 01:25:49;;;;;;;;;;;27.90;99.90;;;;;;4169372;28;20330;-66
2022/10/06 01:27:55;;;;;;;;;;;28.00;99.90;;;;;;4167132;28;19974;-66
2022/10/06 01:30:02;;;;;;;;;;;28.00;99.90;;;;;;4170392;28;19933;-68
2022/10/06 01:32:10;;;;;;;;;;;28.00;99.90;;;;;;4136681;28;19973;-66
2022/10/06 01:34:14;;;;;;;;;;;28.00;99.90;;;;;;4143151;28;19964;-67
2022/10/06 01:36:18;;;;;;;;;;;27.90;99.90;;;;;;4170602;28;19929;-67
2022/10/06 01:38:25;;;;;;;;;;;28.00;99.90;;;;;;4186328;28;19932;-67
2022/10/06 01:40:35;;;;;;;;;;;28.10;99.90;;;;;;4185272;28;19939;-67
2022/10/06 01:42:39;;;;;;;;;;;28.20;99.90;;;;;;4169816;28;19971;-67
2022/10/06 01:44:45;;;;;;;;;;;28.20;99.90;;;;;;4186261;28;20432;-67
2022/10/06 01:46:49;;;;;;;;;;;28.40;99.90;;;;;;4169594;28;19976;-67
2022/10/06 01:48:53;;;;;;;;;;;28.50;99.90;;;;;;4170201;28;20431;-67
2022/10/06 01:51:00;;;;;;;;;;;28.50;99.90;;;;;;4172447;28;20000;-67
2022/10/06 01:53:07;;;;;;;;;;;28.40;99.90;;;;;;4188626;28;19928;-67
2022/10/06 01:55:10;;;;;;;;;;;28.50;99.90;;;;;;4155909;28;20018;-66
2022/10/06 01:57:18;;;;;;;;;;;28.50;99.90;;;;;;4190475;28;19934;-66
2022/10/06 01:59:24;;;;;;;;;;;28.60;99.90;;;;;;4164944;28;19979;-66
2022/10/06 02:01:28;;;;;;;;;;;28.60;99.90;;;;;;4172518;28;19928;-66
2022/10/06 02:03:34;;;;;;;;;;;28.50;99.90;;;;;;4190433;28;20224;-66
2022/10/06 02:05:40;;;;;;;;;;;28.50;99.90;;;;;;4224713;28;19924;-66
2022/10/06 02:07:46;;;;;;;;;;;28.50;99.90;;;;;;4205933;28;20332;-66
2022/10/06 02:09:52;;;;;;;;;;;28.50;99.90;;;;;;4224861;28;20339;-66
2022/10/06 02:11:58;;;;;;;;;;;28.40;99.90;;;;;;4202675;28;19938;-66
2022/10/06 02:14:03;;;;;;;;;;;28.50;99.90;;;;;;4222055;28;19927;-66
2022/10/06 02:16:10;;;;;;;;;;;28.60;99.90;;;;;;4224727;28;19935;-66
2022/10/06 02:18:18;;;;;;;;;;;28.60;99.90;;;;;;4189778;28;20019;-66
2022/10/06 02:20:23;;;;;;;;;;;28.60;99.90;;;;;;4206466;28;20053;-66
2022/10/06 02:22:30;;;;;;;;;;;28.60;99.90;;;;;;4206430;28;20022;-66
2022/10/06 02:24:36;;;;;;;;;;;28.70;99.90;;;;;;4224679;28;20038;-65
2022/10/06 02:26:39;;;;;;;;;;;28.70;99.90;;;;;;4222734;28;19977;-66
2022/10/06 02:28:45;;;;;;;;;;;28.70;99.90;;;;;;4223076;28;19927;-66
2022/10/06 02:30:55;;;;;;;;;;;28.70;99.90;;;;;;4190599;28;19968;-66
2022/10/06 02:33:01;;;;;;;;;;;28.80;99.90;;;;;;4222697;28;20378;-67
2022/10/06 02:35:06;;;;;;;;;;;28.80;99.90;;;;;;4189615;28;20660;-67
2022/10/06 02:37:12;;;;;;;;;;;28.90;99.90;;;;;;4206145;28;19932;-68
2022/10/06 02:39:15;;;;;;;;;;;29.00;99.90;;;;;;4221791;28;19988;-67
2022/10/06 02:41:21;;;;;;;;;;;29.00;99.90;;;;;;4206029;28;19928;-66
2022/10/06 02:43:28;;;;;;;;;;;29.00;99.90;;;;;;4204861;28;19928;-66
2022/10/06 02:45:34;;;;;;;;;;;29.00;99.90;;;;;;4206483;28;19967;-66
2022/10/06 02:47:40;;;;;;;;;;;29.10;99.90;;;;;;4224454;28;19928;-67
2022/10/06 02:49:46;;;;;;;;;;;29.10;99.90;;;;;;4224108;28;19932;-68
2022/10/06 02:51:51;;;;;;;;;;;29.20;99.90;;;;;;4206056;28;19928;-67
2022/10/06 02:53:57;;;;;;;;;;;29.20;99.90;;;;;;4222855;28;19950;-67
2022/10/06 02:56:03;;;;;;;;;;;29.30;99.90;;;;;;4224636;28;20270;-67
2022/10/06 02:58:07;;;;;;;;;;;29.30;99.90;;;;;;4221389;28;19967;-66
2022/10/06 03:00:13;;;;;;;;;;;29.40;99.90;;;;;;4204558;28;19928;-66
2022/10/06 03:02:24;;;;;;;;;;;29.40;99.90;;;;;;4182566;28;20599;-66
2022/10/06 03:04:29;;;;;;;;;;;29.50;99.90;;;;;;4220026;28;19970;-66
2022/10/06 03:06:36;;;;;;;;;;;29.50;99.90;;;;;;4223296;28;19974;-66
2022/10/06 03:08:46;;;;;;;;;;;29.60;99.90;;;;;;4205982;28;20612;-66
2022/10/06 03:10:50;;;;;;;;;;;29.60;99.90;;;;;;4220330;28;19943;-66
2022/10/06 03:12:56;;;;;;;;;;;29.70;99.90;;;;;;4204534;28;19997;-66
2022/10/06 03:15:03;;;;;;;;;;;29.70;99.90;;;;;;4203816;28;20054;-66
2022/10/06 03:17:08;;;;;;;;;;;29.70;99.90;;;;;;4205878;28;20006;-66
2022/10/06 03:19:21;;;;;;;;;;;29.60;99.90;;;;;;4208224;28;20010;-66
2022/10/06 03:21:28;;;;;;;;;;;29.70;99.90;;;;;;4205438;28;20029;-67
2022/10/06 03:23:31;;;;;;;;;;;29.80;99.90;;;;;;4198073;28;19931;-66
2022/10/06 03:25:38;;;;;;;;;;;29.80;99.90;;;;;;4192812;28;19935;-66
2022/10/06 03:27:47;;;;;;;;;;;29.90;99.90;;;;;;4183291;28;19928;-66
2022/10/06 03:29:51;;;;;;;;;;;30.00;99.90;;;;;;4188060;28;19928;-66
2022/10/06 03:31:57;;;;;;;;;;;30.10;99.90;;;;;;4193158;28;19960;-66
2022/10/06 03:34:04;;;;;;;;;;;30.00;99.90;;;;;;4184638;28;19929;-66
2022/10/06 03:36:12;;;;;;;;;;;30.10;99.90;;;;;;4182679;28;19929;-65
2022/10/06 03:38:18;;;;;;;;;;;30.20;99.90;;;;;;4192265;28;20002;-66
2022/10/06 03:40:24;;;;;;;;;;;30.10;99.90;;;;;;4193002;28;20615;-66
2022/10/06 03:42:28;;;;;;;;;;;30.20;99.90;;;;;;4193821;28;20022;-66
2022/10/06 03:44:35;;;;;;;;;;;30.10;99.90;;;;;;4206921;28;19963;-66
2022/10/06 03:46:41;;;;;;;;;;;30.00;99.90;;;;;;4211046;28;19935;-66
2022/10/06 03:48:46;;;;;;;;;;;30.00;99.90;;;;;;4198921;28;19936;-66
2022/10/06 03:50:53;;;;;;;;;;;30.00;99.90;;;;;;4176921;28;19974;-66
2022/10/06 03:52:59;;;;;;;;;;;30.00;99.90;;;;;;4192816;28;20003;-66
2022/10/06 03:55:04;;;;;;;;;;;30.10;99.90;;;;;;4192942;28;20409;-66
2022/10/06 03:57:11;;;;;;;;;;;30.10;99.90;;;;;;4191914;28;20406;-66
2022/10/06 03:59:18;;;;;;;;;;;30.10;99.90;;;;;;4190405;28;20023;-66
2022/10/06 04:01:25;;;;;;;;;;;30.20;99.90;;;;;;4191605;28;19971;-65
2022/10/06 04:03:31;;;;;;;;;;;30.30;99.90;;;;;;4191742;28;19994;-66
2022/10/06 04:05:37;;;;;;;;;;;30.30;99.90;;;;;;4199128;28;20047;-66
2022/10/06 04:07:41;;;;;;;;;;;30.20;99.90;;;;;;4201357;28;19928;-66
2022/10/06 04:09:47;;;;;;;;;;;30.30;99.90;;;;;;4187855;28;19936;-66
2022/10/06 04:11:53;;;;;;;;;;;30.30;99.90;;;;;;4191807;28;19986;-66
2022/10/06 04:13:59;;;;;;;;;;;30.40;99.90;;;;;;4199819;28;19935;-66
2022/10/06 04:16:26;;;;;;;;;;;30.50;99.90;;;;;;4191526;28;19935;-66
2022/10/06 04:18:32;;;;;;;;;;;30.60;99.90;;;;;;4159189;28;19929;-66
2022/10/06 04:20:38;;;;;;;;;;;30.60;98.90;;;;;;4173420;28;20035;-66
2022/10/06 04:22:44;;;;;;;;;;;30.40;99.10;;;;;;4175385;28;19937;-66
2022/10/06 04:24:50;;;;;;;;;;;30.50;99.20;;;;;;4199926;28;19935;-66
2022/10/06 04:27:26;;;;;;;;;;;30.60;99.40;;;;;;4201937;28;19955;-66
2022/10/06 04:29:26;;;;;;;;;;;30.60;99.50;;;;;;4196961;28;19934;-66
2022/10/06 04:31:35;;;;;;;;;;;30.70;99.40;;;;;;4199186;28;19947;-66
2022/10/06 04:33:44;;;;;;;;;;;30.70;99.60;;;;;;4213522;28;20348;-66
2022/10/06 04:35:58;;;;;;;;;;;30.70;99.80;;;;;;4199894;28;20719;-66
2022/10/06 04:38:04;;;;;;;;;;;30.60;99.60;;;;;;4230919;27;19958;-66
2022/10/06 04:40:12;;;;;;;;;;;30.70;99.30;;;;;;4201397;28;19990;-66
2022/10/06 04:42:18;;;;;;;;;;;30.70;99.80;;;;;;4197709;28;20015;-66
2022/10/06 04:44:24;;;;;;;;;;;30.60;99.10;;;;;;4179970;28;20500;-66
2022/10/06 04:46:31;;;;;;;;;;;30.70;99.80;;;;;;4200858;28;19946;-66
2022/10/06 04:48:46;;;;;;;;;;;30.80;99.90;;;;;;4198298;28;19928;-66
2022/10/06 04:50:57;;;;;;;;;;;30.70;99.50;;;;;;4216198;28;20458;-66
2022/10/06 04:53:01;;;;;;;;;;;30.70;99.60;;;;;;4213933;28;19928;-66
2022/10/06 04:55:08;;;;;;;;;;;30.70;99.40;;;;;;4198568;28;19933;-66
2022/10/06 04:57:14;;;;;;;;;;;30.80;99.60;;;;;;4228203;27;19932;-66
2022/10/06 05:00:21;;;;;;;;;;;30.90;99.50;;;;;;4189928;28;19987;-66
2022/10/06 05:01:47;;;;;;;;;;;30.90;99.60;;;;;;4225136;28;20009;-66
2022/10/06 05:03:53;;;;;;;;;;;31.00;99.40;;;;;;4192872;28;19932;-66
2022/10/06 05:06:03;;;;;;;;;;;31.00;99.50;;;;;;4175227;28;20015;-66
2022/10/06 05:08:10;;;;;;;;;;;30.90;99.40;;;;;;4191723;28;19956;-65
2022/10/06 05:10:16;;;;;;;;;;;31.00;99.00;;;;;;4186949;28;20275;-66
2022/10/06 05:12:20;;;;;;;;;;;31.00;99.20;;;;;;4201555;28;19928;-66
2022/10/06 05:14:26;;;;;;;;;;;31.10;99.20;;;;;;4213977;28;20767;-66
2022/10/06 05:16:30;;;;;;;;;;;31.20;99.30;;;;;;4207686;28;20639;-66
2022/10/06 05:18:34;;;;;;;;;;;31.30;99.40;;;;;;4174057;28;19990;-66
2022/10/06 05:20:40;;;;;;;;;;;31.30;99.10;;;;;;4191619;28;19982;-66
2022/10/06 05:22:45;;;;;;;;;;;31.30;99.10;;;;;;4195192;28;19939;-66
2022/10/06 05:24:52;;;;;;;;;;;31.30;99.30;;;;;;4206242;28;19958;-67
2022/10/06 05:27:00;;;;;;;;;;;31.30;99.20;;;;;;4206440;28;19932;-66
2022/10/06 05:29:05;;;;;;;;;;;31.40;98.80;;;;;;4185529;28;19940;-66
2022/10/06 05:31:14;;;;;;;;;;;31.30;98.50;;;;;;4207177;28;19946;-66
2022/10/06 05:33:20;;;;;;;;;;;31.40;98.80;;;;;;4224133;28;20374;-66
2022/10/06 05:35:26;;;;;;;;;;;31.40;98.70;;;;;;4207095;28;19986;-66
2022/10/06 05:37:32;;;;;;;;;;;31.40;98.80;;;;;;4223863;28;19927;-66
2022/10/06 05:39:38;;;;;;;;;;;31.40;99.00;;;;;;4206843;28;19971;-66
2022/10/06 05:41:44;;;;;;;;;;;31.40;98.90;;;;;;4206925;28;20542;-66
2022/10/06 05:43:49;;;;;;;;;;;31.40;98.70;;;;;;4202092;28;19963;-68
2022/10/06 05:45:56;;;;;;;;;;;31.50;99.60;;;;;;4205540;28;20026;-67
2022/10/06 05:48:00;;;;;;;;;;;31.60;99.60;;;;;;4205204;28;20027;-67
2022/10/06 05:50:04;;;;;;;;;;;31.60;98.90;;;;;;4223575;28;19928;-67
2022/10/06 05:52:11;;;;;;;;;;;31.60;98.60;;;;;;4205663;28;19928;-66
2022/10/06 05:54:18;;;;;;;;;;;31.60;98.50;;;;;;4205766;28;19958;-66
2022/10/06 05:56:29;;;;;;;;;;;31.50;98.80;;;;;;4189022;28;20630;-67
2022/10/06 05:58:37;;;;;;;;;;;31.40;98.60;;;;;;4198833;28;20030;-67
2022/10/06 06:00:43;;;;;;;;;;;31.20;98.80;;;;;;4205683;28;20006;-66
2022/10/06 06:02:46;;;;;;;;;;;31.20;99.30;;;;;;4222258;28;19942;-66
2022/10/06 06:04:51;;;;;;;;;;;31.30;99.00;;;;;;4206540;28;20437;-66
2022/10/06 06:06:57;;;;;;;;;;;31.50;98.90;;;;;;4206232;28;20291;-66
2022/10/06 06:09:03;;;;;;;;;;;31.60;99.00;;;;;;4205854;28;20406;-66
2022/10/06 06:11:09;;;;;;;;;;;31.60;98.90;;;;;;4204231;28;19927;-66
2022/10/06 06:13:22;;;;;;;;;;;31.70;98.30;;;;;;4203584;28;19928;-66
2022/10/06 06:17:49;;;;;;;;;;;31.70;98.30;;;;;;4221753;28;19927;-66
2022/10/06 06:19:53;;;;;;;;;;;31.70;98.70;;;;;;4206463;28;19928;-66
2022/10/06 06:21:58;;;;;;;;;;;31.70;98.10;;;;;;4224887;28;19935;-66
2022/10/06 06:24:08;;;;;;;;;;;31.70;98.30;;;;;;4204800;28;20371;-66
2022/10/06 06:26:16;;;;;;;;;;;31.80;98.40;;;;;;4221301;28;19991;-66
2022/10/06 06:28:28;;;;;;;;;;;31.80;98.40;;;;;;4202610;28;19973;-66
2022/10/06 06:30:35;;;;;;;;;;;31.90;98.10;;;;;;4224176;28;19931;-67
2022/10/06 06:32:41;;;;;;;;;;;32.00;98.20;;;;;;4203356;28;19932;-67
2022/10/06 06:34:46;;;;;;;;;;;32.00;98.20;;;;;;4203079;28;20707;-66
2022/10/06 06:36:53;;;;;;;;;;;31.90;98.00;;;;;;4204077;28;19928;-66
2022/10/06 06:39:00;;;;;;;;;;;31.80;98.30;;;;;;4220323;28;20026;-66
2022/10/06 06:41:11;;;;;;;;;;;31.70;98.40;;;;;;4204387;28;19928;-67
2022/10/06 06:43:16;;;;;;;;;;;31.80;98.50;;;;;;4232522;27;20001;-66
2022/10/06 06:45:42;;;;;;;;;;;31.90;98.40;;;;;;4221499;28;19928;-66
2022/10/06 06:47:57;;;;;;;;;;;31.90;98.10;;;;;;4200138;28;19928;-66
2022/10/06 06:50:09;;;;;;;;;;;31.90;97.70;;;;;;4223105;28;20378;-66
2022/10/06 06:52:17;;;;;;;;;;;32.00;97.80;;;;;;4205135;28;19963;-66
2022/10/06 06:54:22;;;;;;;;;;;31.80;97.70;;;;;;4203310;28;19967;-64
2022/10/06 06:56:37;;;;;;;;;;;31.70;98.00;;;;;;4205377;28;20336;-66
2022/10/06 06:58:46;;;;;;;;;;;31.60;98.40;;;;;;4194845;28;19942;-65
2022/10/06 07:00:51;;;;;;;;;;;31.60;98.40;;;;;;4205768;28;20000;-65
2022/10/06 07:02:59;;;;;;;;;;;31.60;98.60;;;;;;4204743;28;19938;-65
2022/10/06 07:05:09;;;;;;;;;;;31.50;98.90;;;;;;4208520;28;19928;-65
2022/10/06 07:07:14;;;;;;;;;;;31.50;99.00;;;;;;4208166;28;20394;-65
2022/10/06 07:09:20;;;;;;;;;;;31.60;98.90;;;;;;4220241;28;19967;-65
2022/10/06 07:11:29;;;;;;;;;;;31.60;98.70;;;;;;4209093;28;19932;-65
2022/10/06 07:13:35;;;;;;;;;;;31.70;98.90;;;;;;4208384;28;20024;-66
2022/10/06 07:27:14;;;;;;;;;;;32.00;98.10;;;;;;4208258;28;19971;-66
2022/10/06 07:29:20;;;;;;;;;;;32.00;97.70;;;;;;4226095;28;20382;-66
2022/10/06 07:31:30;;;;;;;;;;;32.10;97.80;;;;;;4240069;27;20385;-66
2022/10/06 07:33:34;;;;;;;;;;;32.10;97.60;;;;;;4241995;27;19927;-66
2022/10/06 07:35:40;;;;;;;;;;;32.20;97.60;;;;;;4207468;28;19932;-66
2022/10/06 07:37:47;;;;;;;;;;;32.20;97.70;;;;;;4207049;28;19928;-66
2022/10/06 07:39:53;;;;;;;;;;;32.20;97.80;;;;;;4227382;28;20294;-65
2022/10/06 07:41:59;;;;;;;;;;;32.20;97.80;;;;;;4208861;28;19932;-65
2022/10/06 07:44:05;;;;;;;;;;;32.30;97.30;;;;;;4205776;28;20844;-65
2022/10/06 07:46:12;;;;;;;;;;;32.30;96.50;;;;;;4207256;28;19967;-66
2022/10/06 07:48:22;;;;;;;;;;;32.30;97.00;;;;;;4225956;28;20267;-66
2022/10/06 07:50:31;;;;;;;;;;;32.30;96.90;;;;;;4207935;28;19939;-66
2022/10/06 07:52:37;;;;;;;;;;;32.30;97.10;;;;;;4208795;28;19932;-65
2022/10/06 07:54:44;;;;;;;;;;;32.30;97.10;;;;;;4206075;28;20402;-66
2022/10/06 07:57:09;;;;;;;;;;;32.30;96.90;;;;;;4224894;28;20358;-66
2022/10/06 07:59:13;;;;;;;;;;;32.40;96.80;;;;;;4225565;28;19938;-66
2022/10/06 08:01:26;;;;;;;;;;;32.30;96.60;;;;;;4226364;28;19961;-66
2022/10/06 08:03:31;;;;;;;;;;;32.30;96.60;;;;;;4227077;28;19967;-66
2022/10/06 08:05:37;;;;;;;;;;;32.30;96.70;;;;;;4224884;28;19967;-65
2022/10/06 08:07:44;;;;;;;;;;;32.20;96.70;;;;;;4226715;28;20010;-66
2022/10/06 08:09:49;;;;;;;;;;;32.20;96.90;;;;;;4226401;27;19927;-66
2022/10/06 08:11:53;;;;;;;;;;;32.30;97.00;;;;;;4224013;28;19958;-66
2022/10/06 08:14:00;;;;;;;;;;;32.20;97.20;;;;;;4225644;28;20345;-66
2022/10/06 08:16:08;;;;;;;;;;;32.20;97.30;;;;;;4225929;28;19928;-66
2022/10/06 08:18:12;;;;;;;;;;;32.20;97.30;;;;;;4226902;28;20026;-66
2022/10/06 08:20:39;;;;;;;;;;;32.20;97.20;;;;;;4191065;28;20074;-66
2022/10/06 08:22:46;;;;;;;;;;;32.30;97.30;;;;;;4189470;28;19939;-66
2022/10/06 08:24:50;;;;;;;;;;;32.30;96.80;;;;;;4190604;28;19928;-66
2022/10/06 08:27:09;;;;;;;;;;;32.30;96.70;;;;;;4172932;28;19963;-66
2022/10/06 08:29:13;;;;;;;;;;;32.30;96.70;;;;;;4184482;28;19933;-66
2022/10/06 08:31:19;;;;;;;;;;;32.30;96.60;;;;;;4190309;28;20465;-66
2022/10/06 08:33:24;;;;;;;;;;;32.30;96.30;;;;;;4190378;28;19928;-66
2022/10/06 08:35:29;;;;;;;;;;;32.30;96.20;;;;;;4190452;28;20042;-66
2022/10/06 08:37:33;;;;;;;;;;;32.20;95.80;;;;;;4190904;28;19970;-66
2022/10/06 08:39:37;;;;;;;;;;;32.30;96.20;;;;;;4156599;28;20661;-66
2022/10/06 08:41:47;;;;;;;;;;;32.30;96.70;;;;;;4190469;28;20689;-65
2022/10/06 08:44:03;;;;;;;;;;;32.40;96.60;;;;;;4188473;28;20411;-67
2022/10/06 08:46:08;;;;;;;;;;;32.40;96.60;;;;;;4189976;28;19945;-67
2022/10/06 08:48:16;;;;;;;;;;;32.40;96.80;;;;;;4171686;28;19929;-66
2022/10/06 08:50:21;;;;;;;;;;;32.50;96.60;;;;;;4174004;28;20622;-67
2022/10/06 08:52:30;;;;;;;;;;;32.50;96.50;;;;;;4156940;28;19944;-67
2022/10/06 08:54:41;;;;;;;;;;;32.50;96.50;;;;;;4156710;28;19928;-66
2022/10/06 08:56:50;;;;;;;;;;;32.60;96.50;;;;;;4157115;28;19979;-66
2022/10/06 08:58:58;;;;;;;;;;;32.60;96.60;;;;;;4164431;28;19925;-67
2022/10/06 09:01:13;;;;;;;;;;;32.60;96.70;;;;;;4206435;28;19963;-67
2022/10/06 09:03:21;;;;;;;;;;;32.60;96.70;;;;;;4204531;28;19932;-67
2022/10/06 09:05:28;;;;;;;;;;;32.60;96.80;;;;;;4159015;28;20520;-67
2022/10/06 09:07:37;;;;;;;;;;;32.50;96.30;;;;;;4187079;28;19936;-67
2022/10/06 09:09:52;;;;;;;;;;;32.50;96.20;;;;;;4206177;28;20472;-67
2022/10/06 09:12:11;;;;;;;;;;;32.40;96.30;;;;;;4188214;28;20623;-66
2022/10/06 09:14:23;;;;;;;;;;;32.40;96.30;;;;;;4187911;28;20434;-67
2022/10/06 09:16:34;;;;;;;;;;;32.50;96.50;;;;;;4189693;28;19935;-67
2022/10/06 09:18:38;;;;;;;;;;;32.40;96.30;;;;;;4188330;28;20827;-67
2022/10/06 09:21:03;;;;;;;;;;;32.40;96.40;;;;;;4185968;28;19938;-67
2022/10/06 09:23:13;;;;;;;;;;;32.30;95.80;;;;;;4194223;28;19932;-67
2022/10/06 09:25:18;;;;;;;;;;;32.40;96.00;;;;;;4207675;28;19932;-67
2022/10/06 09:27:26;;;;;;;;;;;32.40;96.10;;;;;;4206285;28;19931;-67
2022/10/06 09:29:32;;;;;;;;;;;32.40;96.20;;;;;;4238034;27;19970;-67
2022/10/06 09:31:37;;;;;;;;;;;32.40;96.10;;;;;;4225738;28;20362;-67
2022/10/06 09:33:43;;;;;;;;;;;32.40;96.40;;;;;;4221843;28;19934;-67
2022/10/06 09:36:05;;;;;;;;;;;32.30;96.30;;;;;;4220256;28;19997;-67
2022/10/06 09:38:10;;;;;;;;;;;32.30;96.40;;;;;;4217911;28;20405;-67
2022/10/06 09:40:25;;;;;;;;;;;32.30;96.50;;;;;;4214695;28;19951;-66
2022/10/06 09:42:33;;;;;;;;;;;32.30;96.40;;;;;;4217596;28;20548;-67
2022/10/06 09:44:57;;;;;;;;;;;32.40;96.50;;;;;;4198092;28;19936;-67
2022/10/06 09:47:00;;;;;;;;;;;32.40;96.20;;;;;;4204921;28;20031;-67
2022/10/06 09:49:06;;;;;;;;;;;32.40;96.30;;;;;;4222572;28;20441;-67
2022/10/06 09:51:16;;;;;;;;;;;32.40;96.60;;;;;;4221795;28;20421;-66
2022/10/06 09:53:22;;;;;;;;;;;32.40;96.50;;;;;;4218574;28;19928;-66
2022/10/06 09:55:37;;;;;;;;;;;32.40;96.50;;;;;;4220382;28;19928;-66
2022/10/06 09:57:51;;;;;;;;;;;32.40;96.70;;;;;;4220175;28;20356;-68
2022/10/06 09:59:57;;;;;;;;;;;32.10;96.80;;;;;;4205445;27;19928;-66
2022/10/06 10:02:03;;;;;;;;;;;31.70;96.40;;;;;;4222830;28;20031;-67
2022/10/06 10:04:11;;;;;;;;;;;31.40;96.60;;;;;;4207366;28;20010;-66
2022/10/06 10:06:27;;;;;;;;;;;30.90;96.60;;;;;;4225446;27;19973;-67
2022/10/06 10:08:33;;;;;;;;;;;30.40;97.80;;;;;;4224916;28;20412;-67
2022/10/06 10:10:41;;;;;;;;;;;30.10;99.30;;;;;;4222840;28;19928;-67
2022/10/06 10:12:53;;;;;;;;;;;29.90;99.90;;;;;;4219619;28;20449;-67
2022/10/06 10:15:11;;;;;;;;;;;29.50;99.90;;;;;;4215695;28;19956;-67
2022/10/06 10:17:23;;;;;;;;;;;29.30;99.90;;;;;;4208676;28;19990;-67
2022/10/06 10:19:31;;;;;;;;;;;29.30;99.90;;;;;;4205880;28;19935;-67
2022/10/06 10:21:36;;;;;;;;;;;29.20;99.90;;;;;;4202586;28;19946;-68
2022/10/06 10:23:42;;;;;;;;;;;28.90;99.90;;;;;;4200794;28;19991;-68
2022/10/06 10:25:59;;;;;;;;;;;28.50;99.90;;;;;;4189772;28;20011;-68
2022/10/06 10:28:02;;;;;;;;;;;28.30;99.90;;;;;;4206451;28;20004;-68
2022/10/06 10:30:08;;;;;;;;;;;28.30;99.90;;;;;;4215449;28;19976;-67
2022/10/06 10:32:14;;;;;;;;;;;28.60;99.90;;;;;;4198921;28;19929;-67
2022/10/06 10:34:33;;;;;;;;;;;28.70;99.90;;;;;;4208920;28;19935;-67
2022/10/06 10:36:38;;;;;;;;;;;28.70;99.90;;;;;;4215450;28;20355;-67
2022/10/06 10:38:44;;;;;;;;;;;28.60;99.90;;;;;;4198301;28;19928;-67
2022/10/06 10:40:51;;;;;;;;;;;28.80;99.90;;;;;;4225283;28;19928;-67
2022/10/06 10:42:54;;;;;;;;;;;28.60;99.90;;;;;;4197788;28;19928;-67
2022/10/06 10:45:01;;;;;;;;;;;28.50;99.90;;;;;;4223585;28;20404;-67
2022/10/06 10:47:10;;;;;;;;;;;28.70;99.90;;;;;;4220282;28;20344;-67
2022/10/06 10:49:26;;;;;;;;;;;28.60;99.90;;;;;;4224664;28;19928;-67
2022/10/06 10:51:51;;;;;;;;;;;28.60;99.90;;;;;;4222109;28;20408;-67
2022/10/06 10:54:00;;;;;;;;;;;28.70;99.90;;;;;;4223016;28;20561;-67
2022/10/06 10:56:06;;;;;;;;;;;28.50;99.90;;;;;;4206661;28;20115;-67
2022/10/06 10:58:19;;;;;;;;;;;28.50;99.90;;;;;;4204749;28;19936;-68
2022/10/06 11:00:27;;;;;;;;;;;28.40;99.90;;;;;;4222085;28;19935;-68
2022/10/06 11:02:32;;;;;;;;;;;28.50;99.90;;;;;;4195570;28;19928;-68
2022/10/06 11:04:36;;;;;;;;;;;28.60;99.90;;;;;;4224522;28;19989;-68
2022/10/06 11:06:53;;;;;;;;;;;28.70;99.90;;;;;;4227590;28;20504;-68
2022/10/06 11:09:09;;;;;;;;;;;28.60;99.90;;;;;;4227907;28;19931;-67
2022/10/06 11:11:15;;;;;;;;;;;28.50;99.90;;;;;;4210064;28;19931;-68
2022/10/06 11:13:33;;;;;;;;;;;28.50;99.90;;;;;;4175697;28;19928;-68
2022/10/06 11:15:40;;;;;;;;;;;28.60;99.90;;;;;;4218840;28;19927;-68
2022/10/06 11:17:45;;;;;;;;;;;28.50;99.90;;;;;;4220392;28;20018;-68
2022/10/06 11:19:50;;;;;;;;;;;28.60;99.90;;;;;;4188412;28;20460;-68
2022/10/06 11:21:54;;;;;;;;;;;28.50;99.90;;;;;;4188620;28;19928;-68
2022/10/06 11:24:11;;;;;;;;;;;28.50;99.90;;;;;;4171791;28;20011;-68
2022/10/06 11:26:20;;;;;;;;;;;28.70;99.90;;;;;;4189445;28;19939;-69
2022/10/06 11:28:28;;;;;;;;;;;28.70;99.90;;;;;;4168431;28;20089;-68
2022/10/06 11:30:34;;;;;;;;;;;28.70;99.90;;;;;;4173086;28;20059;-68
2022/10/06 11:32:45;;;;;;;;;;;28.80;99.90;;;;;;4187992;28;19932;-68
2022/10/06 11:34:49;;;;;;;;;;;28.80;99.90;;;;;;4189476;28;19977;-68
2022/10/06 11:36:55;;;;;;;;;;;28.80;99.90;;;;;;4189585;28;19935;-69
2022/10/06 11:39:07;;;;;;;;;;;28.70;99.90;;;;;;4172609;28;20015;-69
2022/10/06 11:41:23;;;;;;;;;;;28.70;99.90;;;;;;4188884;28;19928;-68
2022/10/06 11:43:39;;;;;;;;;;;28.70;99.90;;;;;;4186212;28;19982;-68
2022/10/06 11:45:58;;;;;;;;;;;28.60;99.90;;;;;;4188253;28;20371;-69
2022/10/06 11:48:21;;;;;;;;;;;28.70;99.90;;;;;;4188295;28;19929;-68
2022/10/06 11:50:39;;;;;;;;;;;28.70;99.90;;;;;;4194680;28;20372;-68
2022/10/06 11:52:45;;;;;;;;;;;28.60;99.90;;;;;;4226711;28;19973;-69
2022/10/06 11:54:49;;;;;;;;;;;28.70;99.90;;;;;;4227591;28;19927;-68
2022/10/06 11:56:54;;;;;;;;;;;28.60;99.90;;;;;;4226199;28;19928;-68
2022/10/06 11:58:58;;;;;;;;;;;28.60;99.90;;;;;;4225727;28;19932;-68
2022/10/06 12:01:02;;;;;;;;;;;28.60;99.90;;;;;;4227661;28;19929;-69
2022/10/06 12:03:18;;;;;;;;;;;28.60;99.90;;;;;;4227092;28;20018;-68
2022/10/06 12:05:31;;;;;;;;;;;28.50;99.90;;;;;;4226473;28;20014;-68
2022/10/06 12:07:56;;;;;;;;;;;28.50;99.90;;;;;;4216003;28;19970;-68
2022/10/06 12:10:12;;;;;;;;;;;28.30;99.90;;;;;;4226732;28;19951;-68
2022/10/06 12:12:19;;;;;;;;;;;28.30;99.90;;;;;;4226986;28;19928;-69
2022/10/06 12:14:23;;;;;;;;;;;28.40;99.90;;;;;;4230385;27;19927;-69
2022/10/06 12:16:49;;;;;;;;;;;28.50;99.90;;;;;;4244143;27;19977;-68
2022/10/06 12:19:19;;;;;;;;;;;28.50;99.90;;;;;;4190603;28;19933;-69
2022/10/06 12:21:36;;;;;;;;;;;28.60;99.90;;;;;;4207403;28;19928;-68
2022/10/06 12:24:00;;;;;;;;;;;28.50;99.90;;;;;;4188857;28;19938;-68
2022/10/06 12:26:24;;;;;;;;;;;28.40;99.90;;;;;;4187080;28;19929;-68
2022/10/06 12:28:28;;;;;;;;;;;28.40;99.90;;;;;;4174281;28;19929;-68
2022/10/06 12:30:42;;;;;;;;;;;28.50;99.90;;;;;;4173611;28;19988;-68
2022/10/06 12:32:51;;;;;;;;;;;28.50;99.90;;;;;;4171008;28;20027;-64
2022/10/06 12:35:02;;;;;;;;;;;28.50;99.90;;;;;;4156035;28;19995;-67
2022/10/06 12:37:18;;;;;;;;;;;28.50;99.90;;;;;;4171778;28;19935;-67
2022/10/06 12:39:23;;;;;;;;;;;28.60;99.90;;;;;;4171784;28;20399;-67